Time;durP1;ratioP1;P1;durP2;ratioP2;P2;SDS_P1;SDS_P2;PMS_P1;PMS_P2;Temp;Humidity;BMP_temperature;BMP_pressure;BME280_temperature;BME280_humidity;BME280_pressure;Samples;Min_cycle;Max_cycle;Signal;HPM_P1;HPM_P2
2022/10/12 00:00:19;;;;;;;16.20;8.15;;;;;;;9.40;72.59;102570.44;5051387;28;20032;-70
2022/10/12 00:02:44;;;;;;;18.48;8.70;;;;;;;9.40;72.51;102565.31;5035976;28;20087;-70
2022/10/12 00:05:09;;;;;;;18.58;7.70;;;;;;;9.41;72.45;102561.97;5036914;28;20031;-70
2022/10/12 00:07:35;;;;;;;19.63;7.97;;;;;;;9.38;72.85;102561.75;5042772;28;20407;-70
2022/10/12 00:10:01;;;;;;;19.80;7.97;;;;;;;9.36;72.72;102564.25;5056528;28;20413;-70
2022/10/12 00:12:27;;;;;;;17.75;8.25;;;;;;;9.38;72.33;102561.75;5048620;28;20036;-70
2022/10/12 00:14:52;;;;;;;17.42;7.45;;;;;;;9.36;72.15;102563.38;5043420;28;20033;-70
2022/10/12 00:17:17;;;;;;;17.13;7.38;;;;;;;9.31;72.35;102555.38;5049541;28;20063;-70
2022/10/12 00:19:43;;;;;;;20.08;8.13;;;;;;;9.32;72.29;102556.25;5043148;28;20045;-69
2022/10/12 00:22:08;;;;;;;17.08;8.20;;;;;;;9.27;72.48;102555.97;5048401;28;20032;-70
2022/10/12 00:24:34;;;;;;;18.67;7.85;;;;;;;9.27;72.48;102555.09;5037347;28;20041;-70
2022/10/12 00:26:59;;;;;;;22.05;7.90;;;;;;;9.26;72.31;102568.72;5032892;28;20050;-70
2022/10/12 00:29:25;;;;;;;16.70;7.93;;;;;;;9.25;72.50;102574.66;5034713;28;20052;-70
2022/10/12 00:31:50;;;;;;;16.77;8.30;;;;;;;9.25;72.30;102569.53;5029037;28;20051;-70
2022/10/12 00:34:16;;;;;;;23.48;8.23;;;;;;;9.23;72.24;102572.00;5042818;28;20029;-70
2022/10/12 00:36:42;;;;;;;14.38;7.78;;;;;;;9.19;72.75;102570.03;5047717;28;20037;-70
2022/10/12 00:39:08;;;;;;;16.58;7.45;;;;;;;9.20;72.64;102570.94;5043997;28;20024;-70
2022/10/12 00:41:38;;;;;;;13.52;7.63;;;;;;;9.13;72.32;102561.97;5019708;28;20116;-70
2022/10/12 00:44:32;;;;;;;20.60;8.00;;;;;;;9.25;72.30;102565.28;5036095;28;20044;-70
2022/10/12 00:46:59;;;;;;;13.57;7.38;;;;;;;9.09;72.61;102568.59;5022972;28;20444;-70
2022/10/12 00:49:25;;;;;;;16.20;7.25;;;;;;;9.08;73.11;102565.94;5035981;28;20129;-70
2022/10/12 00:51:57;;;;;;;13.63;7.38;;;;;;;9.08;73.14;102571.94;5035676;28;20183;-70
2022/10/12 00:54:31;;;;;;;16.45;7.00;;;;;;;9.07;73.11;102561.59;5042353;28;20028;-70
2022/10/12 00:56:58;;;;;;;18.63;7.60;;;;;;;9.05;73.09;102565.75;5043569;28;20032;-70
2022/10/12 00:59:41;;;;;;;16.35;6.82;;;;;;;9.05;73.42;102563.19;5037719;28;20029;-69
2022/10/12 01:02:07;;;;;;;15.40;7.00;;;;;;;9.00;73.63;102565.47;5031561;28;20079;-70
2022/10/12 01:04:32;;;;;;;17.58;6.57;;;;;;;8.99;73.78;102566.25;5034312;28;20030;-69
2022/10/12 01:06:59;;;;;;;12.07;6.35;;;;;;;9.00;73.90;102562.91;5036693;28;20037;-69
2022/10/12 01:09:26;;;;;;;15.85;6.40;;;;;;;8.96;74.26;102565.19;5030280;28;20043;-69
2022/10/12 01:11:52;;;;;;;13.95;5.97;;;;;;;8.99;74.22;102558.56;5054582;28;20487;-69
2022/10/12 01:14:17;;;;;;;16.02;6.13;;;;;;;8.97;74.27;102549.88;5043829;28;20036;-70
2022/10/12 01:16:55;;;;;;;15.02;5.95;;;;;;;9.04;74.17;102551.13;5041611;28;20120;-69
2022/10/12 01:19:26;;;;;;;12.60;5.60;;;;;;;9.05;74.07;102548.69;5037200;28;20037;-69
2022/10/12 01:22:18;;;;;;;15.07;5.65;;;;;;;9.09;74.00;102535.22;5038908;28;20468;-70
2022/10/12 01:25:00;;;;;;;12.02;5.63;;;;;;;9.07;74.13;102541.94;5045479;28;20039;-70
2022/10/12 01:27:38;;;;;;;11.65;5.00;;;;;;;9.04;74.03;102531.53;5054725;28;20023;-70
2022/10/12 01:30:14;;;;;;;13.52;5.38;;;;;;;9.05;74.16;102527.28;5054308;28;20033;-68
2022/10/12 01:32:54;;;;;;;11.38;5.07;;;;;;;9.06;74.02;102522.22;5050048;28;20048;-69
2022/10/12 01:35:36;;;;;;;13.77;5.32;;;;;;;9.02;74.15;102527.94;5054420;28;20080;-69
2022/10/12 01:38:23;;;;;;;14.98;5.43;;;;;;;9.03;74.27;102523.69;5045266;28;20084;-69
2022/10/12 01:41:02;;;;;;;13.45;4.82;;;;;;;9.04;74.03;102526.38;5044130;28;20068;-69
2022/10/12 01:43:39;;;;;;;13.20;5.05;;;;;;;9.05;73.98;102524.69;5052890;28;20060;-69
2022/10/12 01:46:19;;;;;;;12.93;4.95;;;;;;;9.06;74.09;102521.34;5051936;28;20038;-70
2022/10/12 01:48:47;;;;;;;7.78;4.80;;;;;;;8.97;74.44;102519.09;5052493;28;20107;-69
2022/10/12 01:51:28;;;;;;;10.35;4.90;;;;;;;9.03;74.44;102511.75;5050737;28;20082;-69
2022/10/12 01:54:08;;;;;;;12.57;5.32;;;;;;;9.04;74.44;102522.91;5046468;28;20094;-69
2022/10/12 01:56:43;;;;;;;13.68;4.80;;;;;;;9.01;74.77;102522.72;5046649;28;20045;-69
2022/10/12 01:59:21;;;;;;;11.25;5.07;;;;;;;8.93;74.80;102514.56;5047956;28;20029;-69
2022/10/12 02:02:32;;;;;;;12.93;5.15;;;;;;;8.99;74.40;102514.94;5049205;28;20067;-69
2022/10/12 02:05:12;;;;;;;12.32;4.97;;;;;;;8.96;74.78;102512.19;4956397;28;20031;-69
2022/10/12 02:07:55;;;;;;;12.45;5.53;;;;;;;8.94;75.20;102513.78;5040120;28;20107;-69
2022/10/12 02:10:27;;;;;;;10.63;5.00;;;;;;;8.88;75.03;102508.28;5049507;28;20111;-69
2022/10/12 02:12:55;;;;;;;11.13;5.13;;;;;;;8.89;75.10;102504.91;5053976;28;20069;-69
2022/10/12 02:15:23;;;;;;;10.30;4.70;;;;;;;8.88;74.89;102498.00;5041692;28;20033;-69
2022/10/12 02:17:51;;;;;;;15.15;5.15;;;;;;;8.86;75.01;102502.19;5049839;28;20051;-69
2022/10/12 02:20:19;;;;;;;10.85;4.85;;;;;;;8.84;74.84;102502.06;5028663;28;20021;-69
2022/10/12 02:22:48;;;;;;;15.43;5.30;;;;;;;8.84;75.15;102494.38;5043416;28;20031;-69
2022/10/12 02:25:17;;;;;;;10.27;5.10;;;;;;;8.87;74.64;102498.81;5044425;28;20025;-69
2022/10/12 02:27:51;;;;;;;12.07;4.53;;;;;;;8.85;74.85;102492.69;5042254;28;20021;-69
2022/10/12 02:30:17;;;;;;;11.90;5.00;;;;;;;8.73;74.69;102491.94;5044255;28;20037;-69
2022/10/12 02:33:01;;;;;;;11.18;4.50;;;;;;;8.75;74.90;102492.94;5046216;28;20033;-68
2022/10/12 02:35:40;;;;;;;18.83;5.43;;;;;;;8.74;74.75;102486.03;5046791;28;20033;-69
2022/10/12 02:38:12;;;;;;;14.02;4.40;;;;;;;8.71;74.56;102491.84;5045833;28;20067;-69
2022/10/12 02:40:43;;;;;;;12.93;4.88;;;;;;;8.70;74.79;102497.78;5045195;28;20041;-69
2022/10/12 02:43:16;;;;;;;10.75;4.70;;;;;;;8.70;74.71;102499.44;5022044;28;20030;-69
2022/10/12 02:45:43;;;;;;;17.05;5.30;;;;;;;8.68;74.74;102501.06;5035126;28;20025;-69
2022/10/12 02:48:14;;;;;;;10.40;5.18;;;;;;;8.64;74.57;102488.81;5037504;28;20037;-69
2022/10/12 02:50:39;;;;;;;11.60;5.25;;;;;;;8.62;74.36;102498.09;5039976;28;20395;-69
2022/10/12 02:53:06;;;;;;;11.18;5.38;;;;;;;8.58;74.21;102491.88;5047307;28;20562;-69
2022/10/12 02:55:37;;;;;;;14.15;6.10;;;;;;;8.64;74.43;102489.69;5048205;28;20103;-69
2022/10/12 02:58:02;;;;;;;11.95;5.78;;;;;;;8.58;74.22;102487.66;5048173;28;20029;-69
2022/10/12 03:00:28;;;;;;;14.98;5.85;;;;;;;8.53;73.86;102486.47;5045865;28;20032;-69
2022/10/12 03:02:53;;;;;;;11.48;5.80;;;;;;;8.53;73.86;102481.34;5042582;28;20025;-69
2022/10/12 03:05:18;;;;;;;11.05;5.85;;;;;;;8.51;73.98;102472.69;5047147;28;20036;-69
2022/10/12 03:07:44;;;;;;;13.30;5.90;;;;;;;8.51;73.86;102479.47;5041580;28;20098;-69
2022/10/12 03:10:09;;;;;;;8.48;5.47;;;;;;;8.48;73.77;102479.28;5048944;28;20029;-69
2022/10/12 03:12:35;;;;;;;12.73;5.70;;;;;;;8.43;74.12;102470.41;5044538;28;20086;-70
2022/10/12 03:15:00;;;;;;;13.43;5.43;;;;;;;8.39;73.63;102471.91;5048257;28;20068;-69
2022/10/12 03:17:25;;;;;;;9.63;5.38;;;;;;;8.38;73.84;102465.03;5053313;28;20351;-70
2022/10/12 03:19:51;;;;;;;11.38;5.05;;;;;;;8.38;73.64;102475.28;5041547;28;20109;-69
2022/10/12 03:22:16;;;;;;;13.40;5.00;;;;;;;8.28;73.92;102467.75;5045920;28;20036;-69
2022/10/12 03:24:41;;;;;;;10.52;5.57;;;;;;;8.28;73.95;102473.75;5031359;28;20420;-69
2022/10/12 03:27:07;;;;;;;12.48;5.93;;;;;;;8.28;73.88;102475.44;5047037;28;20032;-69
2022/10/12 03:29:32;;;;;;;10.55;5.07;;;;;;;8.22;74.12;102462.25;5054165;28;20056;-69
2022/10/12 03:31:58;;;;;;;11.00;4.82;;;;;;;8.21;74.20;102475.84;5020952;28;20053;-69
2022/10/12 03:34:23;;;;;;;12.13;5.18;;;;;;;8.25;74.17;102472.66;5021729;28;20116;-69
2022/10/12 03:36:49;;;;;;;12.00;5.15;;;;;;;8.22;74.11;102472.50;5039954;28;20430;-69
2022/10/12 03:39:14;;;;;;;12.10;5.10;;;;;;;8.23;74.09;102464.91;5028753;28;20037;-69
2022/10/12 03:41:39;;;;;;;12.32;4.82;;;;;;;8.23;74.02;102469.13;5045422;28;20123;-69
2022/10/12 03:44:05;;;;;;;10.32;4.82;;;;;;;8.22;74.42;102468.25;5036406;28;20104;-69
2022/10/12 03:46:31;;;;;;;12.55;5.10;;;;;;;8.20;73.98;102469.84;5039309;28;20055;-69
2022/10/12 03:48:56;;;;;;;10.55;5.25;;;;;;;8.20;74.04;102468.97;5045317;28;20425;-69
2022/10/12 03:51:21;;;;;;;11.10;5.10;;;;;;;8.16;73.90;102465.31;5049230;28;20478;-68
2022/10/12 03:53:47;;;;;;;13.15;5.43;;;;;;;8.15;73.83;102457.53;5028118;28;20028;-69
2022/10/12 03:56:12;;;;;;;10.15;5.10;;;;;;;8.17;73.81;102463.63;5039689;28;20036;-68
2022/10/12 03:58:37;;;;;;;12.95;5.45;;;;;;;8.12;74.17;102457.31;5039196;28;20482;-69
2022/10/12 04:01:03;;;;;;;10.73;4.60;;;;;;;8.12;74.01;102459.88;5041731;28;20043;-69
2022/10/12 04:03:28;;;;;;;12.52;5.65;;;;;;;8.08;74.07;102458.81;5043908;28;20037;-69
2022/10/12 04:05:56;;;;;;;8.45;5.00;;;;;;;8.12;74.67;102459.88;5043660;28;20087;-68
2022/10/12 04:08:21;;;;;;;12.13;5.15;;;;;;;8.01;74.40;102452.41;5021810;28;20041;-69
2022/10/12 04:10:49;;;;;;;9.45;5.10;;;;;;;8.00;74.21;102453.19;5046016;28;20049;-69
2022/10/12 04:13:15;;;;;;;11.05;5.10;;;;;;;7.98;74.24;102452.22;5050889;28;20097;-68
2022/10/12 04:15:40;;;;;;;13.60;5.18;;;;;;;8.00;74.85;102447.19;5060258;28;20059;-69
2022/10/12 04:18:05;;;;;;;11.55;4.90;;;;;;;8.03;74.31;102447.38;5058143;28;20071;-69
2022/10/12 04:20:31;;;;;;;9.88;4.82;;;;;;;8.03;74.23;102455.97;5048365;28;20052;-69
2022/10/12 04:22:56;;;;;;;11.32;5.30;;;;;;;7.99;74.49;102459.09;5024466;28;20087;-69
2022/10/12 04:25:22;;;;;;;13.73;5.13;;;;;;;7.95;74.11;102453.72;5042346;28;20035;-69
2022/10/12 04:27:48;;;;;;;11.35;5.43;;;;;;;7.94;73.89;102460.47;5040091;28;20083;-69
2022/10/12 04:30:13;;;;;;;11.27;5.22;;;;;;;7.94;74.21;102457.91;5040627;28;20041;-69
2022/10/12 04:32:38;;;;;;;9.77;4.57;;;;;;;7.90;73.93;102455.09;5017846;28;20029;-69
2022/10/12 04:35:04;;;;;;;10.68;5.22;;;;;;;7.92;73.79;102459.50;5045204;28;20086;-69
2022/10/12 04:37:29;;;;;;;11.68;5.32;;;;;;;7.93;74.12;102458.72;5032282;28;20597;-69
2022/10/12 04:39:55;;;;;;;10.88;5.43;;;;;;;7.89;74.19;102454.19;5048059;28;20033;-69
2022/10/12 04:42:20;;;;;;;10.25;5.07;;;;;;;7.89;74.12;102450.75;5047269;28;20488;-69
2022/10/12 04:44:46;;;;;;;11.45;5.00;;;;;;;7.91;73.99;102452.63;5027490;28;20043;-69
2022/10/12 04:47:11;;;;;;;10.98;5.22;;;;;;;7.90;74.17;102455.09;5051019;28;20033;-69
2022/10/12 04:49:37;;;;;;;11.73;5.13;;;;;;;7.90;74.18;102460.22;5055806;28;20640;-69
2022/10/12 04:52:02;;;;;;;10.68;4.95;;;;;;;7.88;74.11;102459.19;5046039;28;20040;-69
2022/10/12 04:54:27;;;;;;;9.98;5.20;;;;;;;7.86;74.35;102466.78;5039794;28;20033;-69
2022/10/12 04:56:53;;;;;;;12.13;5.15;;;;;;;7.83;74.43;102460.59;5044580;28;20069;-69
2022/10/12 04:59:18;;;;;;;9.50;5.00;;;;;;;7.79;74.43;102462.06;5022974;28;20040;-69
2022/10/12 05:01:44;;;;;;;11.30;4.88;;;;;;;7.77;74.03;102450.84;5046177;28;20067;-69
2022/10/12 05:04:09;;;;;;;13.15;5.63;;;;;;;7.77;74.09;102446.63;5050189;28;20529;-69
2022/10/12 05:06:35;;;;;;;10.43;5.00;;;;;;;7.77;73.96;102463.66;5038603;28;20488;-69
2022/10/12 05:09:00;;;;;;;9.10;5.22;;;;;;;7.75;74.04;102462.66;5048437;28;20052;-69
2022/10/12 05:11:25;;;;;;;12.35;4.70;;;;;;;7.71;73.65;102458.13;5037685;28;20387;-69
2022/10/12 05:13:51;;;;;;;10.48;5.20;;;;;;;7.70;73.94;102461.47;5039598;28;20452;-70
2022/10/12 05:16:16;;;;;;;8.75;4.97;;;;;;;7.70;74.16;102453.78;5041502;28;20024;-70
2022/10/12 05:18:41;;;;;;;13.48;5.28;;;;;;;7.69;74.30;102452.00;5055724;28;20098;-70
2022/10/12 05:21:07;;;;;;;11.85;5.07;;;;;;;7.64;74.45;102454.25;5045636;28;20035;-70
2022/10/12 05:23:32;;;;;;;11.70;4.85;;;;;;;7.65;74.46;102440.69;5054902;28;20034;-70
2022/10/12 05:25:58;;;;;;;9.18;4.95;;;;;;;7.64;74.11;102440.56;5044199;28;20435;-70
2022/10/12 05:28:23;;;;;;;11.32;4.90;;;;;;;7.61;74.11;102441.28;5007359;28;20036;-70
2022/10/12 05:30:52;;;;;;;9.50;4.80;;;;;;;7.62;73.63;102440.47;5029949;28;20043;-70
2022/10/12 05:33:18;;;;;;;9.35;4.35;;;;;;;7.61;73.51;102432.72;5033074;28;20032;-69
2022/10/12 05:35:44;;;;;;;9.18;4.63;;;;;;;7.59;73.73;102435.19;5037216;28;20037;-68
2022/10/12 05:38:10;;;;;;;11.20;5.13;;;;;;;7.52;73.84;102432.97;5044430;28;20032;-68
2022/10/12 05:40:36;;;;;;;11.57;4.72;;;;;;;7.51;74.09;102437.22;5044478;28;20033;-68
2022/10/12 05:43:01;;;;;;;10.23;4.97;;;;;;;7.44;74.22;102440.16;5045641;28;20055;-68
2022/10/12 05:45:27;;;;;;;13.43;5.50;;;;;;;7.50;74.56;102440.56;5041418;28;20390;-68
2022/10/12 05:47:52;;;;;;;10.35;4.90;;;;;;;7.41;74.73;102436.53;5029880;28;20037;-68
2022/10/12 05:50:17;;;;;;;12.05;5.40;;;;;;;7.46;74.66;102430.03;5020639;28;20064;-68
2022/10/12 05:52:44;;;;;;;13.43;5.35;;;;;;;7.49;75.22;102435.34;5023112;28;20484;-68
2022/10/12 05:55:09;;;;;;;11.02;5.43;;;;;;;7.51;75.19;102437.22;5041574;28;20499;-68
2022/10/12 05:57:36;;;;;;;13.25;5.50;;;;;;;7.53;74.96;102440.78;5040328;28;20033;-67
2022/10/12 06:00:04;;;;;;;10.85;5.30;;;;;;;7.52;75.40;102436.47;5043621;28;20033;-68
2022/10/12 06:02:29;;;;;;;13.73;5.55;;;;;;;7.50;74.81;102427.78;5043213;28;20040;-68
2022/10/12 06:04:54;;;;;;;19.60;5.70;;;;;;;7.56;75.45;102444.31;5027712;28;20071;-68
2022/10/12 06:07:20;;;;;;;19.90;6.63;;;;;;;7.55;75.76;102437.44;5053084;28;20510;-68
2022/10/12 06:09:46;;;;;;;20.30;5.97;;;;;;;7.57;76.18;102433.28;5055345;28;20109;-68
2022/10/12 06:12:11;;;;;;;15.98;6.18;;;;;;;7.53;76.23;102438.22;5046878;28;20043;-68
2022/10/12 06:14:37;;;;;;;16.58;5.50;;;;;;;7.58;76.22;102440.19;5058195;28;20029;-68
2022/10/12 06:17:02;;;;;;;17.52;6.80;;;;;;;7.58;76.42;102435.06;5044585;28;20038;-68
2022/10/12 06:19:28;;;;;;;19.63;6.20;;;;;;;7.57;76.65;102446.09;5049674;28;20308;-68
2022/10/12 06:21:53;;;;;;;15.77;6.22;;;;;;;7.58;76.91;102440.19;5031555;28;20029;-68
2022/10/12 06:24:18;;;;;;;17.02;5.90;;;;;;;7.63;77.07;102439.69;5042322;28;20600;-68
2022/10/12 06:26:44;;;;;;;20.42;6.60;;;;;;;7.64;77.67;102436.34;5056486;28;20029;-68
2022/10/12 06:29:09;;;;;;;15.40;6.38;;;;;;;7.63;77.29;102431.13;5059946;28;20028;-68
2022/10/12 06:31:36;;;;;;;16.63;6.68;;;;;;;7.64;77.41;102427.78;5042357;28;20029;-68
2022/10/12 06:34:02;;;;;;;16.92;6.72;;;;;;;7.65;77.58;102432.13;5057765;28;20604;-68
2022/10/12 06:36:27;;;;;;;15.98;6.30;;;;;;;7.63;77.93;102431.13;5057823;28;20032;-68
2022/10/12 06:38:52;;;;;;;14.35;6.00;;;;;;;7.67;77.92;102425.44;5051472;28;20065;-67
2022/10/12 06:41:18;;;;;;;15.20;7.15;;;;;;;7.69;78.32;102428.97;5041495;28;20647;-67
2022/10/12 06:43:43;;;;;;;16.02;7.03;;;;;;;7.72;78.54;102432.63;5054301;28;20033;-67
2022/10/12 06:46:09;;;;;;;18.33;7.63;;;;;;;7.61;78.59;102408.00;5056624;28;20040;-67
2022/10/12 06:48:34;;;;;;;43.92;8.40;;;;;;;7.78;78.61;102438.13;5054423;28;20665;-68
2022/10/12 06:50:59;;;;;;;25.65;7.05;;;;;;;7.76;79.15;102426.00;5060372;28;20032;-68
2022/10/12 06:53:27;;;;;;;61.28;10.48;;;;;;;7.79;79.23;102433.91;5046675;28;20526;-68
2022/10/12 06:55:53;;;;;;;23.73;7.35;;;;;;;7.83;79.64;102429.88;5042284;28;20028;-67
2022/10/12 06:58:18;;;;;;;17.10;7.03;;;;;;;7.82;79.42;102428.97;5051722;28;20525;-68
2022/10/12 07:00:44;;;;;;;25.65;7.25;;;;;;;7.89;79.94;102432.81;5054544;28;20028;-68
2022/10/12 07:03:12;;;;;;;15.52;7.00;;;;;;;7.90;80.29;102440.59;5051184;28;20047;-67
2022/10/12 07:05:37;;;;;;;17.98;6.60;;;;;;;7.89;80.64;102425.16;5056423;28;20032;-67
2022/10/12 07:08:02;;;;;;;13.15;6.88;;;;;;;7.95;80.12;102433.22;5030717;28;20501;-68
2022/10/12 07:10:28;;;;;;;17.30;7.03;;;;;;;7.97;80.18;102435.06;5057859;28;20052;-67
2022/10/12 07:12:53;;;;;;;18.20;7.43;;;;;;;8.00;80.33;102437.81;5055982;28;20693;-67
2022/10/12 07:15:18;;;;;;;16.40;8.15;;;;;;;8.01;80.97;102433.59;5050849;28;20044;-67
2022/10/12 07:17:44;;;;;;;19.02;8.30;;;;;;;8.02;80.48;102427.69;5049721;28;20241;-67
2022/10/12 07:20:09;;;;;;;20.92;8.82;;;;;;;8.04;80.44;102424.41;5056216;28;20032;-67
2022/10/12 07:22:34;;;;;;;18.17;7.40;;;;;;;8.06;80.23;102439.88;5058329;28;20649;-67
2022/10/12 07:25:00;;;;;;;13.25;7.05;;;;;;;8.09;80.63;102426.41;5047508;28;20494;-66
2022/10/12 07:27:25;;;;;;;19.65;7.30;;;;;;;8.11;80.61;102418.00;5057481;28;20871;-66
2022/10/12 07:29:51;;;;;;;17.77;8.15;;;;;;;8.10;80.38;102425.59;5037662;28;20557;-67
2022/10/12 07:32:16;;;;;;;15.15;7.80;;;;;;;8.10;80.71;102410.22;5056682;28;20056;-67
2022/10/12 07:34:43;;;;;;;19.02;8.15;;;;;;;8.11;80.83;102420.56;5050806;28;20090;-67
2022/10/12 07:37:09;;;;;;;21.88;7.65;;;;;;;8.11;80.40;102420.56;5054099;28;20529;-66
2022/10/12 07:39:34;;;;;;;16.58;7.70;;;;;;;8.13;80.50;102420.66;5050223;28;20032;-67
2022/10/12 07:42:00;;;;;;;19.83;7.70;;;;;;;8.21;80.53;102422.03;5052720;28;20152;-67
2022/10/12 07:44:25;;;;;;;17.77;8.38;;;;;;;8.20;80.66;102421.16;5047622;28;20912;-66
2022/10/12 07:46:51;;;;;;;22.15;8.07;;;;;;;8.26;80.75;102433.47;5048237;28;20573;-67
2022/10/12 07:49:17;;;;;;;16.83;8.43;;;;;;;8.29;80.68;102436.22;5046539;28;20040;-67
2022/10/12 07:51:45;;;;;;;24.35;9.18;;;;;;;8.27;80.64;102432.66;5054546;28;20066;-67
2022/10/12 07:54:10;;;;;;;22.98;8.57;;;;;;;8.34;80.72;102428.00;5054664;28;20021;-67
2022/10/12 07:56:35;;;;;;;18.20;8.70;;;;;;;8.40;80.74;102429.22;5059612;28;20479;-67
2022/10/12 07:59:01;;;;;;;18.23;8.55;;;;;;;8.51;81.29;102430.78;5043573;28;20024;-67
2022/10/12 08:01:29;;;;;;;20.23;9.95;;;;;;;8.66;80.41;102430.81;5044486;28;20024;-67
2022/10/12 08:03:55;;;;;;;19.65;10.30;;;;;;;8.82;80.65;102433.50;5042619;28;20108;-67
2022/10/12 08:06:23;;;;;;;21.80;9.63;;;;;;;8.90;80.18;102434.84;5054399;28;20048;-67
2022/10/12 08:08:48;;;;;;;22.30;10.68;;;;;;;9.01;80.74;102431.25;5058754;28;20139;-67
2022/10/12 08:11:14;;;;;;;23.85;10.57;;;;;;;9.13;80.25;102437.09;5053492;28;20550;-67
2022/10/12 08:13:40;;;;;;;20.42;10.93;;;;;;;9.29;79.65;102438.91;5057408;28;20119;-67
2022/10/12 08:16:10;;;;;;;24.00;10.88;;;;;;;9.49;79.61;102432.34;5061342;28;20028;-67
2022/10/12 08:18:35;;;;;;;26.48;11.23;;;;;;;9.66;79.50;102441.00;5055839;28;20107;-67
2022/10/12 08:21:05;;;;;;;24.42;11.88;;;;;;;9.83;78.21;102445.41;5044924;28;20147;-67
2022/10/12 08:23:31;;;;;;;24.67;11.07;;;;;;;10.03;78.08;102433.69;5048946;28;20064;-67
2022/10/12 08:25:57;;;;;;;19.77;10.40;;;;;;;10.29;77.14;102429.97;5055884;28;20115;-67
2022/10/12 08:28:24;;;;;;;23.20;10.15;;;;;;;10.39;77.00;102428.81;5055712;28;20048;-66
2022/10/12 08:30:49;;;;;;;22.15;10.70;;;;;;;10.55;76.57;102433.06;5052740;28;20113;-67
2022/10/12 08:33:16;;;;;;;22.98;10.93;;;;;;;10.78;76.47;102431.69;5049336;28;20509;-67
2022/10/12 08:35:41;;;;;;;21.15;10.50;;;;;;;10.96;74.78;102430.97;5052212;28;20029;-67
2022/10/12 08:38:10;;;;;;;21.42;11.10;;;;;;;11.25;73.65;102424.72;5054624;28;20035;-66
2022/10/12 08:40:52;;;;;;;30.97;11.67;;;;;;;11.48;73.82;102417.25;5051586;28;20393;-67
2022/10/12 08:43:55;;;;;;;21.92;11.30;;;;;;;11.74;73.83;102414.25;5049157;28;20060;-67
2022/10/12 08:46:22;;;;;;;24.83;11.32;;;;;;;12.00;72.55;102415.50;5048098;28;20107;-67
2022/10/12 08:49:00;;;;;;;22.15;11.55;;;;;;;12.22;71.88;102419.09;5051271;28;20499;-66
2022/10/12 08:51:29;;;;;;;18.75;11.13;;;;;;;12.30;71.54;102417.72;5045909;28;20602;-67
2022/10/12 08:54:00;;;;;;;22.80;11.25;;;;;;;12.51;71.44;102416.13;5053105;28;20113;-66
2022/10/12 08:56:26;;;;;;;19.77;11.13;;;;;;;12.67;71.23;102420.25;5061078;28;20108;-66
2022/10/12 08:58:52;;;;;;;22.90;11.57;;;;;;;12.74;70.20;102419.75;5045769;28;20166;-66
2022/10/12 09:01:35;;;;;;;23.88;12.18;;;;;;;12.79;70.78;102410.47;5054985;28;20491;-66
2022/10/12 09:04:04;;;;;;;21.50;11.98;;;;;;;12.92;70.35;102418.75;5051637;28;20512;-66
2022/10/12 09:06:38;;;;;;;22.33;12.18;;;;;;;12.96;70.24;102411.22;5057206;28;20034;-66
2022/10/12 09:09:09;;;;;;;23.95;12.88;;;;;;;12.90;69.67;102416.13;5042214;28;20071;-66
2022/10/12 09:12:00;;;;;;;23.90;12.88;;;;;;;12.88;71.01;102421.22;5057867;28;20037;-66
2022/10/12 09:14:31;;;;;;;27.15;13.25;;;;;;;12.81;70.12;102424.34;5052843;28;20025;-66
2022/10/12 09:16:59;;;;;;;23.67;12.93;;;;;;;12.80;70.69;102435.50;5056454;28;20047;-66
2022/10/12 09:19:28;;;;;;;27.42;14.05;;;;;;;12.86;70.87;102433.19;5041402;28;20111;-65
2022/10/12 09:21:55;;;;;;;33.22;15.07;;;;;;;12.82;70.27;102432.97;5052318;28;20025;-66
2022/10/12 09:24:25;;;;;;;28.95;14.77;;;;;;;12.75;71.01;102434.41;5025993;28;20029;-66
2022/10/12 09:26:54;;;;;;;21.70;13.73;;;;;;;12.70;71.28;102429.88;5055533;28;20044;-66
2022/10/12 09:29:27;;;;;;;28.23;14.15;;;;;;;12.72;71.39;102436.84;5058604;28;20037;-66
2022/10/12 09:32:23;;;;;;;28.42;14.27;;;;;;;12.80;72.04;102429.44;5051949;28;20020;-66
2022/10/12 09:34:49;;;;;;;29.15;15.02;;;;;;;12.79;71.09;102423.38;5049741;28;20119;-66
2022/10/12 09:37:19;;;;;;;29.25;16.23;;;;;;;12.91;71.64;102422.16;5050017;28;20507;-66
2022/10/12 09:39:45;;;;;;;29.75;15.82;;;;;;;12.95;72.31;102412.03;5044075;28;20024;-66
2022/10/12 09:42:11;;;;;;;29.67;16.08;;;;;;;12.97;72.13;102409.50;5054569;28;20029;-66
2022/10/12 09:44:41;;;;;;;32.75;16.27;;;;;;;13.09;72.49;102423.81;5046604;28;20081;-66
2022/10/12 09:47:28;;;;;;;31.88;16.20;;;;;;;13.17;72.28;102420.72;5053441;28;20022;-66
2022/10/12 09:49:58;;;;;;;24.63;15.55;;;;;;;13.20;72.01;102418.25;5065346;28;20043;-66
2022/10/12 09:52:28;;;;;;;36.00;16.45;;;;;;;13.28;71.52;102420.34;5062098;28;20056;-65
2022/10/12 09:54:58;;;;;;;32.83;16.75;;;;;;;13.28;69.54;102412.59;5062379;28;20029;-66
2022/10/12 09:57:34;;;;;;;32.33;16.92;;;;;;;13.35;70.37;102422.41;5059044;28;20028;-65
2022/10/12 10:00:04;;;;;;;30.52;16.40;;;;;;;13.36;70.46;102420.69;5055614;28;20036;-66
2022/10/12 10:02:30;;;;;;;28.40;15.73;;;;;;;13.39;70.26;102419.09;5058718;28;20040;-65
2022/10/12 10:05:21;;;;;;;28.42;15.35;;;;;;;13.51;70.49;102412.66;5061241;28;20146;-65
2022/10/12 10:07:46;;;;;;;25.40;14.93;;;;;;;13.50;70.18;102405.75;5054463;28;20103;-66
2022/10/12 10:10:22;;;;;;;33.08;15.00;;;;;;;13.59;69.49;102396.66;5045406;28;20040;-68
2022/10/12 10:12:53;;;;;;;26.40;14.50;;;;;;;13.61;70.31;102388.97;5054985;28;20123;-65
2022/10/12 10:15:26;;;;;;;28.75;15.60;;;;;;;13.69;69.87;102387.56;5056311;28;20036;-66
2022/10/12 10:18:23;;;;;;;24.25;15.10;;;;;;;13.75;70.37;102382.63;5054913;28;20036;-66
2022/10/12 10:20:52;;;;;;;31.75;14.98;;;;;;;13.82;68.46;102392.38;5057119;28;20388;-66
2022/10/12 10:23:23;;;;;;;;;;;;;;;13.97;69.80;102396.41;5060669;28;20033;-67
2022/10/12 10:26:17;;;;;;;22.55;14.63;;;;;;;13.91;68.97;102397.94;5053076;28;19917;-66
2022/10/12 10:28:44;;;;;;;24.42;13.85;;;;;;;13.98;68.62;102395.59;5048782;28;20073;-66
2022/10/12 10:31:13;;;;;;;27.90;14.43;;;;;;;13.94;68.99;102402.31;5044058;28;20044;-67
2022/10/12 10:33:39;;;;;;;27.13;14.10;;;;;;;13.93;68.69;102397.97;5059007;28;20060;-66
2022/10/12 10:36:21;;;;;;;26.33;14.40;;;;;;;14.01;68.72;102399.16;5060840;28;20495;-66
2022/10/12 10:38:58;;;;;;;27.90;14.77;;;;;;;14.05;68.28;102403.63;5048039;28;20059;-66
2022/10/12 10:41:35;;;;;;;23.80;13.55;;;;;;;14.14;68.38;102396.22;5028699;28;20113;-65
2022/10/12 10:44:02;;;;;;;31.15;13.95;;;;;;;14.16;67.70;102389.41;5050052;28;20043;-65
2022/10/12 10:46:31;;;;;;;24.85;13.43;;;;;;;14.22;68.30;102381.88;5042981;28;20482;-65
2022/10/12 10:49:05;;;;;;;22.92;13.07;;;;;;;14.34;68.28;102381.44;5040355;28;20061;-66
2022/10/12 10:51:59;;;;;;;27.35;13.43;;;;;;;14.45;67.71;102387.91;5053391;28;20028;-65
2022/10/12 10:54:27;;;;;;;26.70;12.27;;;;;;;14.45;64.56;102382.72;5046419;28;20049;-66
2022/10/12 10:56:59;;;;;;;22.55;11.60;;;;;;;14.62;65.12;102377.28;5025271;28;20086;-65
2022/10/12 10:59:42;;;;;;;23.45;11.65;;;;;;;14.77;66.49;102376.94;5043768;28;20086;-66
2022/10/12 11:02:21;;;;;;;23.45;10.90;;;;;;;14.90;64.87;102367.06;5034949;28;20056;-66
2022/10/12 11:05:09;;;;;;;20.47;11.77;;;;;;;15.07;64.72;102369.34;5041372;28;20112;-65
2022/10/12 11:07:34;;;;;;;21.55;11.20;;;;;;;15.25;63.94;102373.44;5012128;28;20060;-66
2022/10/12 11:10:14;;;;;;;19.40;10.65;;;;;;;15.42;63.07;102360.16;5039424;28;20025;-65
2022/10/12 11:12:45;;;;;;;23.73;10.48;;;;;;;15.57;62.54;102347.66;5038002;28;20037;-65
2022/10/12 11:15:52;;;;;;;19.70;11.10;;;;;;;15.70;62.02;102342.03;5026054;28;20214;-65
2022/10/12 11:18:30;;;;;;;22.35;10.93;;;;;;;15.75;61.25;102348.25;4962292;28;20106;-66
2022/10/12 11:21:16;;;;;;;23.05;11.35;;;;;;;15.79;59.10;102341.47;5029638;28;20041;-65
2022/10/12 11:23:53;;;;;;;19.23;9.93;;;;;;;15.96;59.48;102340.25;5040592;28;20025;-65
2022/10/12 11:26:30;;;;;;;22.10;9.57;;;;;;;16.08;58.54;102330.22;5045696;28;20114;-65
2022/10/12 11:28:59;;;;;;;17.73;8.38;;;;;;;16.05;56.87;102326.66;5033858;28;20171;-65
2022/10/12 11:31:36;;;;;;;17.05;7.70;;;;;;;16.06;56.80;102316.31;5047194;28;20067;-65